Time;durP1;ratioP1;P1;durP2;ratioP2;P2;SDS_P1;SDS_P2;PMS_P1;PMS_P2;Temp;Humidity;BMP_temperature;BMP_pressure;BME280_temperature;BME280_humidity;BME280_pressure;Samples;Min_cycle;Max_cycle;Signal;HPM_P1;HPM_P2
2021/11/26 00:02:26;;;;;;;0.40;0.30;;;;;;;6.25;90.77;99918.63;5055177;28;20462;-75
2021/11/26 00:04:54;;;;;;;0.40;0.30;;;;;;;6.23;90.81;99914.59;5055123;28;20460;-75
2021/11/26 00:07:21;;;;;;;0.40;0.30;;;;;;;6.22;90.95;99918.38;5055194;28;20495;-75
2021/11/26 00:09:50;;;;;;;0.40;0.30;;;;;;;6.20;90.59;99917.88;5055176;28;20438;-74
2021/11/26 00:12:19;;;;;;;0.40;0.30;;;;;;;6.23;90.68;99910.03;5055019;28;20641;-74
2021/11/26 00:14:51;;;;;;;0.40;0.20;;;;;;;6.22;90.44;99908.44;5054181;28;20533;-75
2021/11/26 00:17:19;;;;;;;0.40;0.30;;;;;;;6.10;90.72;99904.56;5054829;28;20435;-75
2021/11/26 00:19:46;;;;;;;0.40;0.30;;;;;;;6.13;90.88;99899.41;5054595;28;20923;-75
2021/11/26 00:22:13;;;;;;;0.40;0.30;;;;;;;6.17;90.85;99900.44;5054556;28;20459;-75
2021/11/26 00:24:40;;;;;;;0.40;0.30;;;;;;;6.18;90.78;99891.28;5054833;28;20446;-75
2021/11/26 00:27:06;;;;;;;0.40;0.30;;;;;;;6.18;90.59;99882.41;5054557;28;20477;-75
2021/11/26 00:29:35;;;;;;;0.40;0.30;;;;;;;6.19;90.88;99894.75;5054767;28;20476;-74
2021/11/26 00:32:02;;;;;;;0.40;0.30;;;;;;;6.16;90.43;99890.78;5054619;28;20474;-74
2021/11/26 00:34:28;;;;;;;0.40;0.30;;;;;;;6.16;90.79;99893.47;5054620;28;20485;-75
2021/11/26 00:36:55;;;;;;;0.40;0.20;;;;;;;6.14;90.70;99884.88;5054321;28;20495;-75
2021/11/26 00:39:22;;;;;;;0.50;0.40;;;;;;;6.13;91.07;99880.59;5054616;28;20504;-75
2021/11/26 00:41:49;;;;;;;3.53;1.83;;;;;;;6.13;91.33;99885.97;5054199;28;20914;-75
2021/11/26 00:44:15;;;;;;;0.40;0.20;;;;;;;6.16;91.43;99884.59;5056159;22;20502;-82
2021/11/26 00:46:44;;;;;;;0.50;0.43;;;;;;;6.21;91.69;99890.69;5036380;28;20479;-82
2021/11/26 00:49:11;;;;;;;0.40;0.20;;;;;;;6.22;91.13;99886.91;5036491;28;20455;-82
2021/11/26 00:51:39;;;;;;;0.40;0.30;;;;;;;6.21;90.25;99879.94;5036455;28;20451;-82
2021/11/26 00:54:05;;;;;;;0.40;0.20;;;;;;;6.21;89.97;99879.94;5063469;22;20540;-70
2021/11/26 00:56:32;;;;;;;0.40;0.30;;;;;;;6.21;89.89;99879.16;5053982;28;20571;-70
2021/11/26 00:58:59;;;;;;;0.40;0.20;;;;;;;6.20;89.94;99889.09;5053957;28;20453;-71
2021/11/26 01:01:26;;;;;;;0.40;0.30;;;;;;;6.19;90.24;99882.09;5053907;28;20992;-70
2021/11/26 01:03:54;;;;;;;0.40;0.30;;;;;;;6.21;90.23;99877.25;5054098;28;20466;-71
2021/11/26 01:06:21;;;;;;;0.80;0.80;;;;;;;6.28;89.70;99883.06;5054082;28;20481;-69
2021/11/26 01:08:48;;;;;;;0.40;0.20;;;;;;;6.32;89.88;99869.84;5053762;28;20993;-71
2021/11/26 01:11:15;;;;;;;0.40;0.30;;;;;;;6.27;89.48;99878.78;5053724;28;20443;-74
2021/11/26 01:13:42;;;;;;;0.40;0.20;;;;;;;6.30;89.40;99867.44;5053662;28;20446;-71
2021/11/26 01:16:08;;;;;;;0.40;0.27;;;;;;;6.30;89.53;99866.66;5053930;28;20812;-70
2021/11/26 01:18:35;;;;;;;0.40;0.30;;;;;;;6.29;89.36;99873.94;5053842;28;20463;-72
2021/11/26 01:21:06;;;;;;;0.40;0.30;;;;;;;6.34;88.85;99861.50;5053774;28;20519;-71
2021/11/26 01:23:33;;;;;;;0.40;0.20;;;;;;;6.31;89.20;99858.28;5053979;28;20553;-70
2021/11/26 01:26:00;;;;;;;0.40;0.30;;;;;;;6.38;88.81;99857.13;5052973;28;20543;-71
2021/11/26 01:28:27;;;;;;;0.40;0.30;;;;;;;6.37;89.20;99860.91;5053625;28;20457;-74
2021/11/26 01:30:54;;;;;;;0.40;0.30;;;;;;;6.40;89.17;99861.13;5053819;28;20473;-73
2021/11/26 01:33:21;;;;;;;0.40;0.30;;;;;;;6.41;89.72;99861.91;5053654;28;20465;-74
2021/11/26 01:35:51;;;;;;;0.40;0.27;;;;;;;6.45;89.68;99862.94;5053312;28;20996;-73
2021/11/26 01:38:20;;;;;;;0.40;0.40;;;;;;;6.43;88.81;99855.16;5053226;28;20442;-73
2021/11/26 01:40:47;;;;;;;0.40;0.30;;;;;;;6.45;89.00;99852.97;5053250;28;21041;-74
2021/11/26 01:43:15;;;;;;;0.40;0.30;;;;;;;6.40;89.50;99849.56;5053421;28;20520;-72
2021/11/26 01:45:44;;;;;;;0.40;0.30;;;;;;;6.38;89.32;99838.31;5053417;28;20490;-75
2021/11/26 01:48:11;;;;;;;0.40;0.30;;;;;;;6.37;89.45;99834.00;5053189;28;20931;-73
2021/11/26 01:50:38;;;;;;;0.40;0.30;;;;;;;6.36;89.28;99833.22;5053458;28;20819;-73
2021/11/26 01:53:05;;;;;;;0.40;0.30;;;;;;;6.37;90.20;99842.06;5052826;28;20532;-73
2021/11/26 01:55:34;;;;;;;0.40;0.20;;;;;;;6.33;90.17;99831.13;5053430;28;20422;-74
2021/11/26 01:58:01;;;;;;;0.50;0.47;;;;;;;6.31;89.98;99834.09;5053170;28;20442;-73
2021/11/26 02:00:31;;;;;;;0.40;0.30;;;;;;;6.27;89.59;99833.06;5053326;28;20870;-74
2021/11/26 02:02:58;;;;;;;0.40;0.30;;;;;;;6.26;89.57;99833.34;5053117;28;20455;-72
2021/11/26 02:05:25;;;;;;;0.40;0.30;;;;;;;6.27;90.04;99830.38;5053176;28;20488;-72
2021/11/26 02:07:52;;;;;;;0.40;0.30;;;;;;;6.22;89.95;99835.81;5053155;28;20833;-73
2021/11/26 02:10:19;;;;;;;0.40;0.20;;;;;;;6.21;89.66;99815.41;5052912;28;20446;-72
2021/11/26 02:12:47;;;;;;;0.40;0.30;;;;;;;6.24;89.43;99812.16;5053055;28;20465;-71
2021/11/26 02:15:19;;;;;;;12.03;3.50;;;;;;;6.23;89.64;99813.22;5053113;28;20497;-72
2021/11/26 02:17:46;;;;;;;0.40;0.30;;;;;;;6.23;89.83;99802.47;5052774;28;20435;-72
2021/11/26 02:20:19;;;;;;;0.40;0.27;;;;;;;6.21;89.99;99803.84;5052803;28;20442;-72
2021/11/26 02:22:46;;;;;;;0.40;0.20;;;;;;;6.21;89.38;99803.84;5052760;28;20967;-71
2021/11/26 02:25:12;;;;;;;0.60;0.57;;;;;;;6.25;89.41;99794.91;5053033;28;20484;-72
2021/11/26 02:27:39;;;;;;;0.40;0.20;;;;;;;6.26;89.59;99788.44;5052940;28;20906;-72
2021/11/26 02:30:14;;;;;;;0.50;0.50;;;;;;;6.28;89.72;99791.63;5052947;28;20496;-73
2021/11/26 02:32:41;;;;;;;0.40;0.30;;;;;;;6.29;90.03;99781.69;5052912;28;20493;-71
2021/11/26 02:35:09;;;;;;;0.40;0.20;;;;;;;6.25;90.22;99778.78;5052628;28;21004;-72
2021/11/26 02:37:37;;;;;;;0.40;0.30;;;;;;;6.24;90.45;99774.50;5053506;28;20446;-72
2021/11/26 02:40:05;;;;;;;0.40;0.30;;;;;;;6.24;90.43;99776.38;5056874;28;20487;-73
2021/11/26 02:42:32;;;;;;;0.50;0.40;;;;;;;6.26;90.17;99760.75;5056815;28;20450;-72
2021/11/26 02:44:59;;;;;;;0.40;0.30;;;;;;;6.23;90.44;99770.19;5056635;28;20870;-73
2021/11/26 02:47:25;;;;;;;0.40;0.30;;;;;;;6.26;89.87;99766.13;5056794;28;20536;-72
2021/11/26 02:49:52;;;;;;;0.40;0.30;;;;;;;6.26;89.88;99761.56;5056779;28;20446;-72
2021/11/26 02:52:19;;;;;;;0.40;0.30;;;;;;;6.26;89.85;99748.09;5056622;28;20850;-73
2021/11/26 02:54:47;;;;;;;0.40;0.30;;;;;;;6.29;89.82;99749.41;5056236;28;20454;-71
2021/11/26 02:57:14;;;;;;;0.40;0.30;;;;;;;6.29;89.78;99747.53;5056281;28;20492;-72
2021/11/26 02:59:40;;;;;;;0.40;0.37;;;;;;;6.25;89.54;99746.50;5056528;28;20869;-72
2021/11/26 03:02:07;;;;;;;11.43;4.73;;;;;;;6.27;89.84;99743.53;5056559;28;20495;-72
2021/11/26 03:04:34;;;;;;;0.60;0.60;;;;;;;6.25;90.16;99745.72;5056042;28;20847;-72
2021/11/26 03:07:02;;;;;;;0.40;0.20;;;;;;;6.26;89.79;99747.31;5056038;28;20998;-72
2021/11/26 03:09:29;;;;;;;0.40;0.30;;;;;;;6.24;89.48;99755.69;5056042;28;20491;-73
2021/11/26 03:11:58;;;;;;;0.40;0.30;;;;;;;6.23;89.79;99748.69;5055997;28;20989;-71
2021/11/26 03:14:25;;;;;;;0.40;0.30;;;;;;;6.22;89.85;99746.28;5055889;28;20481;-72
2021/11/26 03:16:53;;;;;;;0.40;0.20;;;;;;;6.22;90.17;99740.91;5056215;28;20495;-73
2021/11/26 03:19:20;;;;;;;0.40;0.30;;;;;;;6.24;90.01;99741.41;5056351;28;20435;-71
2021/11/26 03:21:46;;;;;;;0.40;0.30;;;;;;;6.23;89.66;99735.22;5056133;28;20442;-73
2021/11/26 03:24:13;;;;;;;0.40;0.30;;;;;;;6.17;89.74;99722.97;5056001;28;20872;-71
2021/11/26 03:26:40;;;;;;;0.40;0.30;;;;;;;6.20;89.99;99735.03;5056014;28;20485;-73
2021/11/26 03:29:08;;;;;;;0.40;0.30;;;;;;;6.25;89.89;99726.91;5055644;28;20931;-72
2021/11/26 03:31:35;;;;;;;4.50;4.23;;;;;;;6.22;89.68;99728.28;5055602;28;20851;-72
2021/11/26 03:34:03;;;;;;;0.40;0.20;;;;;;;6.23;89.89;99727.16;5055811;28;20674;-72
2021/11/26 03:36:30;;;;;;;0.40;0.30;;;;;;;6.25;90.44;99719.63;5055600;28;20492;-72
2021/11/26 03:38:56;;;;;;;0.40;0.20;;;;;;;6.25;90.97;99725.00;5055600;28;20430;-73
2021/11/26 03:41:23;;;;;;;0.40;0.30;;;;;;;6.24;89.88;99720.72;5055728;28;20491;-71
2021/11/26 03:43:50;;;;;;;0.40;0.30;;;;;;;6.24;90.20;99723.41;5055534;28;20462;-71
2021/11/26 03:46:19;;;;;;;0.40;0.30;;;;;;;6.27;90.08;99727.38;5055262;28;20551;-71
2021/11/26 03:48:47;;;;;;;0.40;0.30;;;;;;;6.22;89.95;99717.50;5054773;28;20939;-73
2021/11/26 03:51:14;;;;;;;0.40;0.30;;;;;;;6.23;89.97;99727.16;5054944;28;20446;-71
2021/11/26 03:53:40;;;;;;;0.40;0.30;;;;;;;6.26;89.85;99718.53;5055119;28;20481;-73
2021/11/26 03:56:08;;;;;;;0.40;0.30;;;;;;;6.30;90.38;99716.06;5055454;28;20442;-71
2021/11/26 03:58:34;;;;;;;0.40;0.30;;;;;;;6.34;90.05;99711.69;5055069;28;20445;-72
2021/11/26 04:01:01;;;;;;;0.40;0.27;;;;;;;6.31;89.85;99712.25;5055395;28;20446;-71
2021/11/26 04:03:29;;;;;;;0.40;0.30;;;;;;;6.31;89.88;99706.88;5055301;28;20462;-71
2021/11/26 04:05:56;;;;;;;0.40;0.30;;;;;;;6.29;89.72;99703.72;5055266;28;20438;-73
2021/11/26 04:08:22;;;;;;;0.40;0.30;;;;;;;6.31;89.92;99704.19;5054934;28;20450;-73
2021/11/26 04:10:49;;;;;;;0.40;0.30;;;;;;;6.27;89.33;99703.97;5054977;28;20491;-75
2021/11/26 04:13:18;;;;;;;0.50;0.50;;;;;;;6.22;89.31;99697.91;5054858;28;20895;-75
2021/11/26 04:15:45;;;;;;;0.40;0.30;;;;;;;6.21;88.90;99699.78;5054788;28;20888;-74
2021/11/26 04:18:12;;;;;;;0.40;0.20;;;;;;;6.22;89.04;99695.22;5054852;28;20439;-74
2021/11/26 04:20:43;;;;;;;1.27;1.17;;;;;;;6.25;88.80;99697.31;5054760;28;21010;-73
2021/11/26 04:23:10;;;;;;;0.40;0.30;;;;;;;6.25;88.50;99692.72;5055043;28;20472;-74
2021/11/26 04:25:37;;;;;;;1.27;1.27;;;;;;;6.22;88.52;99693.31;5054969;28;20434;-75
2021/11/26 04:28:04;;;;;;;0.40;0.20;;;;;;;6.18;88.41;99683.44;5054893;28;20478;-74
2021/11/26 04:30:32;;;;;;;0.40;0.30;;;;;;;6.21;88.27;99680.16;5054887;28;20443;-74
2021/11/26 04:32:59;;;;;;;0.40;0.30;;;;;;;6.23;88.58;99678.78;5054793;28;20515;-74
2021/11/26 04:35:26;;;;;;;0.40;0.30;;;;;;;6.20;88.56;99684.75;5054786;28;20450;-73
2021/11/26 04:37:54;;;;;;;0.40;0.30;;;;;;;6.13;88.92;99678.16;5054686;28;20544;-73
2021/11/26 04:40:21;;;;;;;0.40;0.30;;;;;;;6.20;88.26;99676.69;5054904;28;20454;-74
2021/11/26 04:42:49;;;;;;;0.40;0.30;;;;;;;6.19;88.81;99668.91;5054145;28;20474;-74
2021/11/26 04:45:17;;;;;;;0.40;0.30;;;;;;;6.21;88.53;99664.03;5054509;28;20538;-74
2021/11/26 04:47:44;;;;;;;0.40;0.30;;;;;;;6.15;89.17;99663.31;5054445;28;20477;-73
2021/11/26 04:50:12;;;;;;;0.40;0.20;;;;;;;6.19;88.37;99653.56;5054148;28;20472;-73
2021/11/26 04:52:39;;;;;;;0.40;0.30;;;;;;;6.12;88.84;99663.91;5053885;28;20809;-73
2021/11/26 04:55:10;;;;;;;0.40;0.30;;;;;;;6.14;88.85;99664.41;5054410;28;20419;-72
2021/11/26 04:57:37;;;;;;;0.40;0.30;;;;;;;6.18;89.01;99660.03;5054426;28;20422;-74
2021/11/26 05:00:06;;;;;;;1.17;1.07;;;;;;;6.20;89.16;99665.94;5054072;28;20480;-73
2021/11/26 05:02:33;;;;;;;10.00;8.00;;;;;;;6.20;88.73;99668.63;5053898;28;20938;-73
2021/11/26 05:04:59;;;;;;;0.40;0.30;;;;;;;6.20;89.05;99662.44;5054170;28;20504;-73
2021/11/26 05:07:26;;;;;;;0.40;0.30;;;;;;;6.22;89.32;99666.44;5053800;28;20990;-74
2021/11/26 05:09:53;;;;;;;0.40;0.27;;;;;;;6.26;89.42;99661.25;5054074;28;20468;-71
2021/11/26 05:12:21;;;;;;;0.40;0.20;;;;;;;6.28;89.73;99657.16;5053902;28;20434;-70
2021/11/26 05:14:48;;;;;;;0.40;0.30;;;;;;;6.29;89.46;99655.31;5054088;28;20450;-74
2021/11/26 05:17:15;;;;;;;0.93;0.93;;;;;;;6.26;89.62;99656.69;5053894;28;20438;-71
2021/11/26 05:19:41;;;;;;;1.00;1.00;;;;;;;6.29;89.47;99639.97;5053738;28;21001;-72
2021/11/26 05:22:08;;;;;;;0.40;0.30;;;;;;;6.30;88.73;99646.13;5054002;28;20500;-72
2021/11/26 05:24:35;;;;;;;2.10;2.00;;;;;;;6.30;88.62;99638.84;5053816;28;20473;-72
2021/11/26 05:27:01;;;;;;;1.33;1.23;;;;;;;6.32;88.62;99633.97;5053427;28;20512;-73
2021/11/26 05:29:30;;;;;;;0.40;0.30;;;;;;;6.32;88.48;99636.66;5053803;28;20446;-72
2021/11/26 05:31:56;;;;;;;0.40;0.30;;;;;;;6.31;88.21;99624.31;5053652;28;20442;-71
2021/11/26 05:34:23;;;;;;;0.40;0.27;;;;;;;6.26;88.75;99629.00;5053297;28;20462;-71
2021/11/26 05:36:50;;;;;;;0.40;0.30;;;;;;;6.30;88.70;99619.25;5053743;28;20496;-73
2021/11/26 05:39:17;;;;;;;0.50;0.50;;;;;;;6.32;87.70;99617.84;5053148;28;21005;-73
2021/11/26 05:41:44;;;;;;;0.40;0.30;;;;;;;6.31;88.10;99612.75;5053357;28;20442;-72
2021/11/26 05:44:10;;;;;;;0.40;0.30;;;;;;;6.26;88.25;99608.28;5052997;28;20462;-72
2021/11/26 05:46:38;;;;;;;0.40;0.30;;;;;;;6.22;89.20;99607.28;5052980;28;20476;-72
2021/11/26 05:49:05;;;;;;;0.50;0.30;;;;;;;6.19;88.54;99602.47;5052960;28;21021;-72
2021/11/26 05:51:32;;;;;;;0.40;0.20;;;;;;;6.20;89.12;99604.09;5053357;28;20488;-72
2021/11/26 05:53:59;;;;;;;0.40;0.30;;;;;;;6.22;89.42;99604.59;5053234;28;20474;-72
2021/11/26 05:56:25;;;;;;;0.40;0.30;;;;;;;6.26;89.57;99602.91;5052906;28;20442;-71
2021/11/26 05:58:52;;;;;;;0.40;0.30;;;;;;;6.27;88.87;99601.00;5053177;28;20492;-72
2021/11/26 06:01:19;;;;;;;0.40;0.30;;;;;;;6.24;88.93;99594.34;5053168;28;20446;-71
2021/11/26 06:03:47;;;;;;;0.40;0.30;;;;;;;6.24;89.36;99602.41;5053163;28;20466;-72
2021/11/26 06:06:14;;;;;;;0.40;0.30;;;;;;;6.17;89.68;99606.56;5053223;28;20442;-72
2021/11/26 06:08:40;;;;;;;0.40;0.30;;;;;;;6.17;89.94;99604.66;5052893;28;20540;-74
2021/11/26 06:11:07;;;;;;;0.40;0.30;;;;;;;6.19;89.91;99604.38;5053259;28;20442;-74
2021/11/26 06:13:34;;;;;;;0.40;0.23;;;;;;;6.16;90.09;99597.72;5052385;28;20488;-75
2021/11/26 06:16:01;;;;;;;0.40;0.30;;;;;;;6.12;90.57;99604.75;5053226;28;20491;-75
2021/11/26 06:18:27;;;;;;;0.50;0.30;;;;;;;6.13;90.64;99608.25;5053176;28;20443;-76
2021/11/26 06:20:56;;;;;;;0.40;0.20;;;;;;;6.14;90.68;99597.19;5053063;28;20859;-75
2021/11/26 06:23:23;;;;;;;0.40;0.30;;;;;;;6.14;90.82;99596.41;5052753;28;20466;-74
2021/11/26 06:25:50;;;;;;;0.40;0.20;;;;;;;6.15;90.41;99593.41;5052891;28;21053;-73
2021/11/26 06:28:16;;;;;;;0.40;0.23;;;;;;;6.08;90.56;99590.31;5053000;28;20486;-74
2021/11/26 06:30:43;;;;;;;0.40;0.30;;;;;;;6.11;90.40;99591.59;5052960;28;20434;-74
2021/11/26 06:33:10;;;;;;;0.40;0.30;;;;;;;6.13;90.27;99600.19;5052853;28;20462;-73
2021/11/26 06:35:37;;;;;;;0.40;0.30;;;;;;;6.11;89.34;99586.22;5052971;28;20446;-74
2021/11/26 06:38:05;;;;;;;1.70;1.60;;;;;;;6.09;89.22;99589.22;5052993;28;20563;-76
2021/11/26 06:40:32;;;;;;;0.40;0.30;;;;;;;6.11;88.86;99600.50;5052714;28;21004;-76
2021/11/26 06:42:59;;;;;;;0.40;0.30;;;;;;;6.10;88.60;99590.81;5070487;22;20492;-73
2021/11/26 06:45:26;;;;;;;0.40;0.20;;;;;;;6.10;88.52;99593.50;5050376;28;20462;-70
2021/11/26 06:47:53;;;;;;;0.40;0.20;;;;;;;6.04;88.99;99587.41;5052634;28;20536;-73
2021/11/26 06:50:20;;;;;;;0.40;0.30;;;;;;;6.06;88.39;99589.81;5052331;28;20495;-72
2021/11/26 06:52:48;;;;;;;0.40;0.30;;;;;;;6.02;88.54;99586.94;5052326;28;20481;-71
2021/11/26 06:55:17;;;;;;;0.40;0.20;;;;;;;6.01;87.64;99582.63;5032820;28;20439;-71
2021/11/26 06:57:44;;;;;;;0.40;0.20;;;;;;;6.02;87.85;99578.03;5032577;28;20435;-71
2021/11/26 07:00:14;;;;;;;0.40;0.30;;;;;;;6.03;87.76;99579.66;5032465;28;20450;-71
2021/11/26 07:02:41;;;;;;;0.40;0.30;;;;;;;6.02;87.69;99581.56;5032192;28;20443;-74
2021/11/26 07:05:09;;;;;;;0.40;0.30;;;;;;;5.97;87.25;99578.13;5031449;28;20512;-70
2021/11/26 07:07:36;;;;;;;0.40;0.30;;;;;;;5.95;87.39;99583.81;5031978;28;20475;-72
2021/11/26 07:10:05;;;;;;;0.40;0.20;;;;;;;5.92;87.36;99580.91;5032396;28;20936;-72
2021/11/26 07:12:34;;;;;;;0.40;0.30;;;;;;;5.88;87.24;99572.59;5032176;28;20435;-73
2021/11/26 07:15:02;;;;;;;0.40;0.30;;;;;;;5.89;87.84;99574.22;5032495;28;20888;-72
2021/11/26 07:17:28;;;;;;;0.40;0.20;;;;;;;5.90;88.00;99575.00;5032480;28;20475;-74
2021/11/26 07:19:55;;;;;;;0.40;0.20;;;;;;;5.95;88.22;99569.59;5032501;28;20446;-72
2021/11/26 07:22:22;;;;;;;0.40;0.30;;;;;;;6.01;87.62;99568.38;5032331;28;20447;-73
2021/11/26 07:24:49;;;;;;;0.40;0.30;;;;;;;5.97;87.43;99570.88;5033442;28;20466;-74
2021/11/26 07:27:17;;;;;;;0.40;0.30;;;;;;;6.00;87.39;99566.81;5036066;28;20428;-73
2021/11/26 07:29:45;;;;;;;0.40;0.20;;;;;;;6.01;87.60;99563.00;5035705;28;20447;-73
2021/11/26 07:32:13;;;;;;;0.40;0.30;;;;;;;6.10;87.27;99571.19;5035676;28;20449;-70
2021/11/26 07:34:41;;;;;;;0.40;0.27;;;;;;;6.10;86.54;99566.59;5035521;28;20525;-74
2021/11/26 07:37:08;;;;;;;0.40;0.30;;;;;;;6.06;86.70;99555.69;5035758;28;20963;-73
2021/11/26 07:39:36;;;;;;;0.40;0.30;;;;;;;6.14;86.73;99561.44;5035780;28;20835;-74
2021/11/26 07:42:05;;;;;;;0.40;0.30;;;;;;;6.14;86.84;99548.00;5035444;28;20952;-74
2021/11/26 07:44:33;;;;;;;0.40;0.30;;;;;;;6.17;86.80;99560.88;5035396;28;20533;-74
2021/11/26 07:47:01;;;;;;;0.40;0.30;;;;;;;6.21;86.59;99551.09;5035392;28;20546;-74
2021/11/26 07:49:29;;;;;;;0.40;0.30;;;;;;;6.25;86.18;99546.72;5035589;28;20536;-75
2021/11/26 07:51:57;;;;;;;0.40;0.30;;;;;;;6.26;86.40;99538.38;5035637;28;20881;-74
2021/11/26 07:54:24;;;;;;;0.40;0.30;;;;;;;6.30;85.79;99539.38;5035211;28;20553;-74
2021/11/26 07:56:50;;;;;;;0.40;0.30;;;;;;;6.35;85.43;99541.16;5035253;28;20447;-73
2021/11/26 07:59:17;;;;;;;0.40;0.30;;;;;;;6.38;85.52;99545.16;5035461;28;20861;-73
2021/11/26 08:01:47;;;;;;;0.40;0.30;;;;;;;6.37;85.58;99528.19;5035139;28;20936;-72
2021/11/26 08:04:16;;;;;;;0.40;0.30;;;;;;;6.42;85.53;99538.88;5035397;28;20463;-72
2021/11/26 08:06:46;;;;;;;0.40;0.30;;;;;;;6.38;85.27;99527.13;5035397;28;20538;-73
2021/11/26 08:09:12;;;;;;;0.40;0.30;;;;;;;6.35;85.65;99537.66;5035313;28;20577;-73
2021/11/26 08:11:39;;;;;;;0.40;0.30;;;;;;;6.43;84.88;99536.97;5034593;28;21005;-73
2021/11/26 08:14:07;;;;;;;1.00;0.80;;;;;;;6.42;85.06;99533.50;5035192;28;20471;-73
2021/11/26 08:16:34;;;;;;;0.40;0.30;;;;;;;6.41;85.01;99539.16;5034863;28;20454;-73
2021/11/26 08:19:05;;;;;;;0.40;0.30;;;;;;;6.44;85.14;99530.50;5034885;28;20435;-73
2021/11/26 08:21:34;;;;;;;0.40;0.20;;;;;;;6.44;84.76;99522.44;5035112;28;20427;-73
2021/11/26 08:24:01;;;;;;;0.40;0.20;;;;;;;6.48;84.41;99529.59;5034637;28;20463;-73
2021/11/26 08:26:28;;;;;;;0.40;0.20;;;;;;;6.46;84.53;99525.59;5034624;28;20447;-73
2021/11/26 08:28:56;;;;;;;0.40;0.30;;;;;;;6.46;85.08;99528.28;5034900;28;20490;-73
2021/11/26 08:31:23;;;;;;;0.40;0.30;;;;;;;6.53;85.28;99521.41;5034530;28;20447;-72
2021/11/26 08:33:50;;;;;;;0.40;0.20;;;;;;;6.55;84.53;99511.16;5034723;28;20474;-73
2021/11/26 08:36:16;;;;;;;0.40;0.30;;;;;;;6.67;84.69;99516.03;5034362;28;20442;-73
2021/11/26 08:38:45;;;;;;;0.40;0.30;;;;;;;6.78;84.21;99511.25;5034711;28;20446;-73
2021/11/26 08:41:12;;;;;;;0.40;0.20;;;;;;;6.79;84.33;99512.81;5034515;28;20443;-73
2021/11/26 08:43:39;;;;;;;0.40;0.30;;;;;;;6.78;84.08;99503.97;5034436;28;20922;-72
2021/11/26 08:46:06;;;;;;;0.40;0.20;;;;;;;6.83;83.29;99503.06;5034376;28;20432;-73
2021/11/26 08:48:33;;;;;;;0.40;0.20;;;;;;;6.88;83.04;99500.25;5034160;28;20479;-73
2021/11/26 08:50:59;;;;;;;0.40;0.30;;;;;;;6.94;82.29;99499.03;5034478;28;20493;-74
2021/11/26 08:53:26;;;;;;;0.40;0.30;;;;;;;6.97;81.69;99497.63;5034463;28;20540;-72
2021/11/26 08:55:55;;;;;;;0.40;0.30;;;;;;;7.02;81.38;99495.59;5034380;28;20489;-74
2021/11/26 08:58:22;;;;;;;0.40;0.30;;;;;;;7.06;81.30;99496.59;5034020;28;20991;-74
2021/11/26 09:00:49;;;;;;;0.40;0.30;;;;;;;7.06;81.27;99496.59;5034271;28;20446;-74
2021/11/26 09:03:17;;;;;;;0.40;0.30;;;;;;;7.18;80.71;99490.69;5033860;28;20459;-74
2021/11/26 09:05:44;;;;;;;1.23;1.20;;;;;;;7.22;81.31;99491.66;5033824;28;20517;-74
2021/11/26 09:08:15;;;;;;;0.40;0.30;;;;;;;7.30;79.48;99490.94;5033729;28;20840;-74
2021/11/26 09:10:44;;;;;;;0.40;0.30;;;;;;;7.40;79.01;99483.72;5034138;28;20897;-74
2021/11/26 09:13:13;;;;;;;0.40;0.30;;;;;;;7.45;78.43;99486.28;5033553;28;20463;-74
2021/11/26 09:15:40;;;;;;;0.40;0.30;;;;;;;7.43;78.16;99485.78;5033983;28;20439;-74
2021/11/26 09:18:07;;;;;;;0.40;0.30;;;;;;;7.44;78.57;99485.47;5033923;28;20485;-74
2021/11/26 09:20:35;;;;;;;0.40;0.30;;;;;;;7.45;78.49;99480.88;5033714;28;20522;-74
2021/11/26 09:23:02;;;;;;;0.40;0.30;;;;;;;7.47;76.82;99487.53;5033697;28;20451;-74
2021/11/26 09:25:30;;;;;;;0.40;0.30;;;;;;;7.53;75.86;99478.25;5033810;28;20447;-74
2021/11/26 09:27:56;;;;;;;0.40;0.20;;;;;;;7.56;75.91;99471.44;5033782;28;20578;-75
2021/11/26 09:30:27;;;;;;;0.40;0.30;;;;;;;7.61;75.76;99478.59;5033777;28;20447;-74
2021/11/26 09:32:55;;;;;;;0.40;0.30;;;;;;;7.64;75.98;99469.91;5033635;28;20494;-74
2021/11/26 09:35:22;;;;;;;0.40;0.30;;;;;;;7.67;75.79;99467.38;5033417;28;20493;-74
2021/11/26 09:37:49;;;;;;;0.40;0.30;;;;;;;7.73;75.65;99454.56;5033728;28;20455;-74
2021/11/26 09:40:17;;;;;;;0.40;0.30;;;;;;;7.80;74.74;99458.41;5033593;28;20439;-75
2021/11/26 09:42:44;;;;;;;2.00;1.70;;;;;;;7.83;74.05;99457.81;5033340;28;20936;-74
2021/11/26 09:45:13;;;;;;;0.40;0.30;;;;;;;7.81;73.04;99454.59;5033040;28;20483;-74
2021/11/26 09:47:41;;;;;;;0.40;0.30;;;;;;;7.78;73.91;99447.13;5032399;28;20447;-75
2021/11/26 09:50:08;;;;;;;0.40;0.27;;;;;;;7.75;73.66;99441.59;5033104;28;21069;-74
2021/11/26 09:52:39;;;;;;;0.40;0.30;;;;;;;7.78;74.45;99430.97;5033418;28;20865;-74
2021/11/26 09:55:07;;;;;;;0.40;0.30;;;;;;;7.70;74.55;99429.03;5033388;28;20562;-74
2021/11/26 09:57:34;;;;;;;0.40;0.30;;;;;;;7.70;74.14;99429.03;5033349;28;20897;-74
2021/11/26 10:00:01;;;;;;;0.40;0.30;;;;;;;7.81;74.01;99430.34;5032992;28;21001;-74
2021/11/26 10:02:28;;;;;;;0.40;0.30;;;;;;;7.84;72.24;99428.94;5033285;28;20532;-74
2021/11/26 10:05:00;;;;;;;0.40;0.30;;;;;;;7.75;72.63;99417.31;5032882;28;20513;-74
2021/11/26 10:07:27;;;;;;;0.40;0.30;;;;;;;7.70;72.60;99417.44;5033291;28;20447;-74
2021/11/26 10:09:54;;;;;;;0.40;0.30;;;;;;;7.75;72.98;99420.03;5033206;28;20599;-74
2021/11/26 10:12:21;;;;;;;0.40;0.30;;;;;;;7.74;72.45;99410.31;5033183;28;20453;-74
2021/11/26 10:14:50;;;;;;;1.63;1.53;;;;;;;7.72;72.48;99405.25;5033133;28;20471;-74
2021/11/26 10:17:20;;;;;;;0.40;0.30;;;;;;;7.71;73.97;99405.56;5033167;28;20482;-74
2021/11/26 10:19:49;;;;;;;0.40;0.30;;;;;;;7.72;72.52;99407.94;5033090;28;20466;-74
2021/11/26 10:22:20;;;;;;;0.40;0.30;;;;;;;7.71;72.31;99410.97;5032806;28;20465;-74
2021/11/26 10:25:05;;;;;;;0.40;0.30;;;;;;;7.73;72.34;99397.97;5033093;28;20831;-74
2021/11/26 10:27:37;;;;;;;0.40;0.30;;;;;;;7.67;73.24;99391.91;5031496;28;20979;-74
2021/11/26 10:30:19;;;;;;;0.50;0.40;;;;;;;7.74;73.39;99391.47;5032974;28;20479;-74
2021/11/26 10:32:58;;;;;;;0.40;0.20;;;;;;;7.71;72.49;99392.09;5033047;28;20428;-74
2021/11/26 10:35:27;;;;;;;0.40;0.20;;;;;;;7.76;74.24;99389.25;5033101;28;20804;-74
2021/11/26 10:38:05;;;;;;;0.40;0.30;;;;;;;7.75;71.03;99383.09;5032660;28;21031;-74
2021/11/26 10:40:33;;;;;;;0.40;0.27;;;;;;;7.69;72.76;99375.44;5032920;28;20438;-74
2021/11/26 10:43:02;;;;;;;0.40;0.30;;;;;;;7.74;72.44;99369.91;5032760;28;20820;-74
2021/11/26 10:45:48;;;;;;;0.40;0.30;;;;;;;7.78;71.53;99363.56;5032616;28;20463;-74
2021/11/26 10:51:07;;;;;;;0.40;0.30;;;;;;;7.87;71.85;99357.41;5032948;28;20411;-74
2021/11/26 10:59:09;;;;;;;0.40;0.30;;;;;;;8.12;72.34;99343.19;5034637;28;20410;-75
2021/11/26 11:01:44;;;;;;;0.40;0.30;;;;;;;8.20;71.67;99339.72;5036282;28;20454;-74
2021/11/26 11:04:14;;;;;;;0.40;0.30;;;;;;;8.13;69.32;99333.22;5035768;28;21074;-74
2021/11/26 11:06:41;;;;;;;0.40;0.30;;;;;;;8.04;70.54;99341.28;5036332;28;20442;-74
2021/11/26 11:09:12;;;;;;;0.40;0.30;;;;;;;7.83;71.91;99333.81;5036345;28;20482;-74
2021/11/26 11:11:50;;;;;;;0.40;0.30;;;;;;;7.82;71.60;99334.09;5036388;28;20795;-74
2021/11/26 11:14:21;;;;;;;0.40;0.30;;;;;;;7.86;70.02;99323.47;5036012;28;20459;-74
2021/11/26 11:16:49;;;;;;;0.40;0.30;;;;;;;7.87;70.24;99315.06;5036255;28;20443;-74
2021/11/26 11:19:16;;;;;;;0.40;0.30;;;;;;;7.89;70.56;99320.97;5036194;28;20451;-74
2021/11/26 11:21:45;;;;;;;0.40;0.30;;;;;;;7.99;71.97;99311.78;5035845;28;20862;-74
2021/11/26 11:24:15;;;;;;;0.40;0.30;;;;;;;8.05;72.05;99315.91;5035686;28;21042;-74
2021/11/26 11:26:45;;;;;;;0.40;0.30;;;;;;;8.00;71.01;99302.56;5036156;28;20467;-74
2021/11/26 11:29:13;;;;;;;0.40;0.20;;;;;;;7.89;72.71;99301.28;5036094;28;20463;-74
2021/11/26 11:31:41;;;;;;;0.40;0.30;;;;;;;7.89;73.66;99295.91;5035697;28;20488;-74
2021/11/26 11:34:09;;;;;;;0.40;0.30;;;;;;;7.93;73.68;99291.47;5035912;28;20561;-74
2021/11/26 11:36:37;;;;;;;0.53;0.53;;;;;;;8.00;73.61;99279.09;5035892;28;20451;-74
2021/11/26 11:39:06;;;;;;;0.40;0.30;;;;;;;8.11;73.26;99276.91;5035556;28;20439;-74
2021/11/26 11:41:46;;;;;;;0.40;0.30;;;;;;;8.19;73.37;99278.81;5035834;28;20816;-74
2021/11/26 11:44:22;;;;;;;0.40;0.30;;;;;;;8.31;72.30;99278.16;5035461;28;20532;-74
2021/11/26 11:46:50;;;;;;;0.40;0.30;;;;;;;8.35;69.72;99279.09;5035796;28;20458;-74
2021/11/26 11:49:23;;;;;;;0.40;0.30;;;;;;;8.22;69.48;99261.97;5035747;28;20491;-75
2021/11/26 11:51:50;;;;;;;0.40;0.30;;;;;;;8.25;70.08;99261.34;5035383;28;20489;-74
2021/11/26 11:54:18;;;;;;;0.40;0.30;;;;;;;8.38;71.04;99250.75;5035188;28;20991;-74